Time;durP1;ratioP1;P1;durP2;ratioP2;P2;SDS_P1;SDS_P2;PMS_P1;PMS_P2;Temp;Humidity;BMP_temperature;BMP_pressure;BME280_temperature;BME280_humidity;BME280_pressure;Samples;Min_cycle;Max_cycle;Signal;HPM_P1;HPM_P2
2023/09/10 00:00:23;;;;;;;19.70;17.97;;;18.90;1.00;;;;;;5082079;28;20547;-73
2023/09/10 00:02:51;;;;;;;20.10;18.40;;;18.90;1.00;;;;;;5083470;28;20547;-70
2023/09/10 00:05:18;;;;;;;21.47;19.67;;;18.90;1.00;;;;;;5089072;28;20470;-68
2023/09/10 00:07:45;;;;;;;20.53;18.97;;;18.80;1.00;;;;;;5083864;28;21305;-69
2023/09/10 00:10:12;;;;;;;20.20;18.40;;;18.80;1.00;;;;;;5081347;28;20519;-69
2023/09/10 00:12:39;;;;;;;20.80;18.70;;;18.80;1.00;;;;;;5083216;28;20550;-71
2023/09/10 00:15:07;;;;;;;20.27;18.37;;;18.80;1.00;;;;;;5081716;28;20543;-73
2023/09/10 00:17:34;;;;;;;20.03;18.27;;;18.70;1.00;;;;;;5084945;28;20970;-69
2023/09/10 00:20:02;;;;;;;22.27;20.30;;;18.70;1.00;;;;;;5082514;28;20505;-69
2023/09/10 00:22:29;;;;;;;19.50;17.90;;;18.70;1.00;;;;;;5083301;28;20465;-69
2023/09/10 00:24:56;;;;;;;19.93;18.37;;;18.70;1.00;;;;;;5082319;28;20497;-70
2023/09/10 00:27:23;;;;;;;19.73;18.23;;;18.70;1.00;;;;;;5084301;28;21136;-69
2023/09/10 00:29:50;;;;;;;19.93;18.37;;;18.70;1.00;;;;;;5082667;28;20488;-72
2023/09/10 00:32:17;;;;;;;20.30;18.40;;;18.70;1.00;;;;;;5083424;28;20484;-70
2023/09/10 00:34:43;;;;;;;19.60;18.10;;;18.60;1.00;;;;;;5085909;28;20501;-69
2023/09/10 00:37:12;;;;;;;20.00;18.20;;;18.60;1.00;;;;;;5081511;28;20573;-68
2023/09/10 00:39:39;;;;;;;19.87;18.13;;;18.50;1.00;;;;;;5082686;28;20927;-69
2023/09/10 00:42:10;;;;;;;21.03;19.07;;;18.60;1.00;;;;;;5087484;28;20553;-74
2023/09/10 00:44:38;;;;;;;21.57;19.63;;;18.50;1.00;;;;;;5086033;28;20847;-68
2023/09/10 00:47:06;;;;;;;20.37;18.70;;;18.50;1.00;;;;;;5083252;28;20543;-68
2023/09/10 00:49:33;;;;;;;20.90;18.97;;;18.40;1.00;;;;;;5087455;28;20478;-68
2023/09/10 00:52:01;;;;;;;21.37;19.50;;;18.40;1.00;;;;;;5082447;28;20548;-70
2023/09/10 00:54:32;;;;;;;19.27;17.83;;;18.40;1.00;;;;;;5079743;28;22714;-69
2023/09/10 00:57:00;;;;;;;19.83;18.20;;;18.50;1.00;;;;;;5081284;28;20596;-69
2023/09/10 00:59:27;;;;;;;21.30;19.60;;;18.40;1.00;;;;;;5083572;28;20472;-70
2023/09/10 01:01:54;;;;;;;20.53;18.83;;;18.30;1.00;;;;;;5082681;28;20461;-76
2023/09/10 01:04:23;;;;;;;21.20;19.30;;;18.30;1.00;;;;;;5080561;28;20488;-72
2023/09/10 01:06:51;;;;;;;21.50;19.37;;;18.30;1.00;;;;;;5081557;28;20553;-70
2023/09/10 01:09:18;;;;;;;20.03;18.33;;;18.30;1.00;;;;;;5085583;28;20533;-69
2023/09/10 01:12:02;;;;;;;20.23;18.60;;;18.30;1.00;;;;;;5081398;28;20841;-69
2023/09/10 01:14:35;;;;;;;19.50;17.80;;;18.30;1.00;;;;;;5081948;28;20468;-69
2023/09/10 01:17:11;;;;;;;20.20;18.60;;;18.30;1.00;;;;;;5080689;28;20564;-69
2023/09/10 01:20:00;;;;;;;20.23;18.63;;;18.30;1.00;;;;;;5082695;28;20481;-69
2023/09/10 01:22:33;;;;;;;22.13;20.17;;;18.30;1.00;;;;;;5081307;28;21289;-73
2023/09/10 01:25:02;;;;;;;20.80;19.10;;;18.20;1.00;;;;;;5080530;28;20627;-70
2023/09/10 01:27:29;;;;;;;20.37;18.60;;;18.10;1.00;;;;;;5079655;28;20485;-71
2023/09/10 01:29:56;;;;;;;21.67;19.63;;;18.10;1.00;;;;;;5079054;28;21017;-70
2023/09/10 01:32:27;;;;;;;22.23;20.53;;;18.00;1.00;;;;;;5082510;28;20531;-70
2023/09/10 01:35:02;;;;;;;21.00;19.30;;;18.00;1.00;;;;;;5078474;28;21425;-71
2023/09/10 01:37:35;;;;;;;21.43;19.50;;;18.00;1.00;;;;;;5077311;28;20569;-68
2023/09/10 01:40:09;;;;;;;21.33;19.53;;;17.90;1.00;;;;;;5084186;28;20559;-72
2023/09/10 01:42:36;;;;;;;21.10;19.20;;;17.90;1.00;;;;;;5075471;28;21200;-70
2023/09/10 01:45:06;;;;;;;21.47;19.70;;;17.80;1.00;;;;;;5080358;28;20465;-71
2023/09/10 01:47:33;;;;;;;21.53;19.77;;;17.80;1.00;;;;;;5080822;28;21276;-70
2023/09/10 01:50:00;;;;;;;21.30;19.60;;;17.80;1.00;;;;;;5083146;28;20678;-69
2023/09/10 01:52:27;;;;;;;21.70;19.90;;;17.80;1.00;;;;;;5080555;28;20989;-70
2023/09/10 01:54:54;;;;;;;20.30;18.60;;;17.90;1.00;;;;;;5079822;28;20463;-70
2023/09/10 01:57:23;;;;;;;21.80;19.90;;;17.90;1.00;;;;;;5081394;28;20464;-70
2023/09/10 01:59:50;;;;;;;20.63;18.83;;;17.90;1.00;;;;;;5078801;28;20909;-68
2023/09/10 02:02:17;;;;;;;20.50;18.67;;;17.80;1.00;;;;;;5078960;28;20528;-69
2023/09/10 02:04:44;;;;;;;20.47;18.73;;;17.70;1.00;;;;;;5080279;28;20508;-68
2023/09/10 02:07:11;;;;;;;20.20;18.50;;;17.70;1.00;;;;;;5078848;28;20570;-68
2023/09/10 02:09:38;;;;;;;22.30;20.30;;;17.70;1.00;;;;;;5077454;28;20478;-69
2023/09/10 02:12:05;;;;;;;20.87;19.17;;;17.70;1.00;;;;;;5073776;28;20957;-70
2023/09/10 02:14:33;;;;;;;21.83;20.03;;;17.60;1.00;;;;;;5077281;28;21023;-69
2023/09/10 02:17:00;;;;;;;19.97;18.30;;;17.60;1.00;;;;;;5080260;28;20552;-72
2023/09/10 02:19:27;;;;;;;22.43;20.50;;;17.60;1.00;;;;;;5078593;28;20500;-68
2023/09/10 02:21:55;;;;;;;21.67;19.90;;;17.50;1.00;;;;;;5081055;28;20967;-70
2023/09/10 02:24:22;;;;;;;21.73;19.83;;;17.50;1.00;;;;;;5075677;28;20923;-68
2023/09/10 02:26:49;;;;;;;21.80;20.10;;;17.50;1.00;;;;;;5080379;28;20475;-72
2023/09/10 02:29:18;;;;;;;20.83;19.03;;;17.50;1.00;;;;;;5081698;28;20533;-74
2023/09/10 02:31:46;;;;;;;21.27;19.57;;;17.40;1.00;;;;;;5081171;28;20459;-74
2023/09/10 02:34:13;;;;;;;22.40;20.30;;;17.40;1.00;;;;;;5081813;28;20544;-69
2023/09/10 02:36:40;;;;;;;22.00;20.23;;;17.30;1.00;;;;;;5079802;28;20951;-68
2023/09/10 02:39:07;;;;;;;23.27;21.27;;;17.30;1.00;;;;;;5076664;28;20489;-70
2023/09/10 02:41:34;;;;;;;19.90;18.30;;;17.20;1.00;;;;;;5077994;28;20466;-68
2023/09/10 02:44:01;;;;;;;22.13;20.33;;;17.20;1.00;;;;;;5080256;28;20473;-69
2023/09/10 02:46:28;;;;;;;21.00;19.30;;;17.20;1.00;;;;;;5078648;28;20975;-68
2023/09/10 02:48:57;;;;;;;22.57;20.57;;;17.10;1.00;;;;;;5081312;28;20472;-72
2023/09/10 02:51:24;;;;;;;23.70;21.60;;;17.10;1.00;;;;;;5079293;28;20545;-69
2023/09/10 02:53:50;;;;;;;23.20;21.07;;;17.00;1.00;;;;;;5080709;28;20951;-71
2023/09/10 02:56:17;;;;;;;22.00;20.10;;;17.00;1.00;;;;;;5083877;28;21264;-68
2023/09/10 02:58:44;;;;;;;22.87;21.00;;;17.10;1.00;;;;;;5080243;28;20889;-67
2023/09/10 03:01:11;;;;;;;22.80;20.70;;;17.10;1.00;;;;;;5079694;28;20517;-70
2023/09/10 03:03:38;;;;;;;21.50;19.70;;;17.00;1.00;;;;;;5082810;28;20455;-67
2023/09/10 03:06:13;;;;;;;23.77;21.77;;;17.00;1.00;;;;;;5080621;28;20488;-68
2023/09/10 03:08:42;;;;;;;23.63;21.43;;;17.00;1.00;;;;;;5082291;28;20493;-67
2023/09/10 03:11:09;;;;;;;23.07;21.07;;;17.00;1.00;;;;;;5080787;28;20461;-68
2023/09/10 03:13:36;;;;;;;23.13;21.13;;;17.00;1.00;;;;;;5081733;28;20516;-68
2023/09/10 03:16:03;;;;;;;22.47;20.67;;;17.00;1.00;;;;;;5077714;28;20558;-68
2023/09/10 03:18:30;;;;;;;22.57;20.40;;;17.00;1.00;;;;;;5076429;28;21052;-70
2023/09/10 03:20:57;;;;;;;22.57;20.53;;;16.90;1.00;;;;;;5079892;28;20615;-68
2023/09/10 03:23:25;;;;;;;25.03;23.03;;;16.90;1.00;;;;;;5079267;28;20490;-68
2023/09/10 03:25:55;;;;;;;23.63;21.43;;;16.90;1.00;;;;;;5076963;28;20482;-73
2023/09/10 03:28:22;;;;;;;22.17;20.37;;;16.90;1.00;;;;;;5081643;28;20502;-69
2023/09/10 03:30:49;;;;;;;22.20;20.27;;;16.70;1.00;;;;;;5077198;28;20458;-71
2023/09/10 03:33:16;;;;;;;22.30;20.27;;;16.70;1.00;;;;;;5080438;28;20533;-68
2023/09/10 03:35:43;;;;;;;22.67;20.77;;;16.70;1.00;;;;;;5074613;28;20959;-68
2023/09/10 03:38:10;;;;;;;22.93;20.83;;;16.70;1.00;;;;;;5081048;28;20458;-69
2023/09/10 03:40:38;;;;;;;22.07;20.17;;;16.70;1.00;;;;;;5081169;28;20572;-68
2023/09/10 03:43:06;;;;;;;23.33;21.00;;;16.70;1.00;;;;;;5078708;28;20455;-68
2023/09/10 03:45:33;;;;;;;21.87;20.10;;;16.60;1.00;;;;;;5074753;28;20468;-69
2023/09/10 03:48:00;;;;;;;23.40;21.10;;;16.60;1.00;;;;;;5082334;28;20489;-69
2023/09/10 03:50:27;;;;;;;23.03;20.70;;;16.70;1.00;;;;;;5077657;28;20560;-72
2023/09/10 03:52:54;;;;;;;23.20;21.20;;;16.60;1.00;;;;;;5077808;28;20458;-69
2023/09/10 03:55:21;;;;;;;22.60;20.50;;;16.70;1.00;;;;;;5080634;28;20512;-68
2023/09/10 03:57:49;;;;;;;24.13;21.93;;;16.60;1.00;;;;;;5080070;28;20623;-68
2023/09/10 04:00:16;;;;;;;22.47;20.30;;;16.60;1.00;;;;;;5075970;28;21031;-68
2023/09/10 04:02:43;;;;;;;22.97;21.10;;;16.60;1.00;;;;;;5076133;28;20486;-70
2023/09/10 04:05:11;;;;;;;23.30;21.50;;;16.60;1.00;;;;;;5075952;28;20454;-70
2023/09/10 04:07:38;;;;;;;22.80;20.90;;;16.60;1.00;;;;;;5079333;28;20458;-70
2023/09/10 04:10:06;;;;;;;23.43;21.53;;;16.60;1.00;;;;;;5078801;28;20524;-68
2023/09/10 04:12:33;;;;;;;21.93;20.13;;;16.60;1.00;;;;;;5079163;28;20509;-68
2023/09/10 04:15:02;;;;;;;22.97;21.03;;;16.60;1.00;;;;;;5077536;28;20482;-68
2023/09/10 04:17:30;;;;;;;21.57;19.80;;;16.60;1.00;;;;;;5080866;28;20485;-68
2023/09/10 04:19:57;;;;;;;23.40;20.97;;;16.60;1.00;;;;;;5074981;28;20534;-71
2023/09/10 04:22:24;;;;;;;22.67;20.73;;;16.60;1.00;;;;;;5077285;28;20582;-70
2023/09/10 04:24:51;;;;;;;22.57;20.77;;;16.60;1.00;;;;;;5080247;28;21197;-70
2023/09/10 04:27:18;;;;;;;23.37;21.30;;;16.60;1.00;;;;;;5076081;28;20547;-70
2023/09/10 04:29:45;;;;;;;23.57;21.57;;;16.50;1.00;;;;;;5082807;28;20486;-73
2023/09/10 04:32:13;;;;;;;23.13;21.20;;;16.50;1.00;;;;;;5081663;28;20512;-69
2023/09/10 04:34:40;;;;;;;24.00;21.93;;;16.40;1.00;;;;;;5080261;28;20528;-72
2023/09/10 04:37:07;;;;;;;24.70;22.33;;;16.40;1.00;;;;;;5079067;28;22319;-74
2023/09/10 04:39:34;;;;;;;23.90;22.00;;;16.30;1.00;;;;;;5084676;28;20553;-73
2023/09/10 04:42:02;;;;;;;23.63;21.73;;;16.30;1.00;;;;;;5083201;28;20486;-74
2023/09/10 04:44:29;;;;;;;25.80;23.57;;;16.30;1.00;;;;;;5083052;28;20814;-73
2023/09/10 04:46:56;;;;;;;28.47;26.03;;;16.30;1.00;;;;;;5079477;28;21088;-75
2023/09/10 04:49:25;;;;;;;23.10;21.30;;;16.30;1.00;;;;;;5082995;28;20519;-75
2023/09/10 04:51:52;;;;;;;25.43;23.23;;;16.20;1.00;;;;;;5082146;28;20554;-75
2023/09/10 04:54:19;;;;;;;24.07;21.97;;;16.20;1.00;;;;;;5080380;28;20906;-74
2023/09/10 04:56:47;;;;;;;23.93;21.93;;;16.20;1.00;;;;;;5084202;28;20533;-74
2023/09/10 04:59:14;;;;;;;23.77;21.80;;;16.30;1.00;;;;;;5084119;28;20473;-75
2023/09/10 05:01:41;;;;;;;30.70;28.20;;;16.30;1.00;;;;;;5080684;28;20539;-74
2023/09/10 05:04:08;;;;;;;24.47;22.40;;;16.30;1.00;;;;;;5083539;28;20463;-74
2023/09/10 05:06:36;;;;;;;22.67;20.83;;;16.30;1.00;;;;;;5083440;28;20573;-73
2023/09/10 05:09:04;;;;;;;25.33;23.00;;;16.40;1.00;;;;;;5080059;28;20454;-75
2023/09/10 05:11:30;;;;;;;23.23;21.23;;;16.40;1.00;;;;;;5084676;28;20441;-74
2023/09/10 05:13:57;;;;;;;22.73;20.93;;;16.40;1.00;;;;;;5081003;28;22588;-74
2023/09/10 05:16:24;;;;;;;22.80;20.90;;;16.40;1.00;;;;;;5080809;28;20549;-73
2023/09/10 05:18:52;;;;;;;24.53;22.27;;;16.40;1.00;;;;;;5082881;28;20843;-75
2023/09/10 05:21:20;;;;;;;22.70;20.70;;;16.50;1.00;;;;;;5084450;28;20553;-75
2023/09/10 05:23:47;;;;;;;24.03;21.93;;;16.50;1.00;;;;;;5081277;28;20495;-73
2023/09/10 05:26:14;;;;;;;23.13;21.23;;;16.60;1.00;;;;;;5083461;28;20447;-73
2023/09/10 05:28:41;;;;;;;24.70;22.37;;;16.60;1.00;;;;;;5080816;28;20449;-75
2023/09/10 05:31:08;;;;;;;25.13;23.03;;;16.60;1.00;;;;;;5082188;28;20459;-75
2023/09/10 05:33:36;;;;;;;21.47;19.67;;;16.70;1.00;;;;;;5085377;28;20947;-74
2023/09/10 05:36:03;;;;;;;18.27;16.87;;;16.80;1.00;;;;;;5081054;28;20969;-73
2023/09/10 05:38:30;;;;;;;25.13;23.00;;;16.90;1.00;;;;;;5080089;28;20463;-73
2023/09/10 05:41:03;;;;;;;25.90;23.30;;;17.00;1.00;;;;;;5080027;28;20969;-75
2023/09/10 05:43:31;;;;;;;23.40;21.40;;;17.10;1.00;;;;;;5085254;28;20581;-73
2023/09/10 05:45:58;;;;;;;23.60;21.70;;;17.20;1.00;;;;;;5084008;28;20455;-73
2023/09/10 05:48:25;;;;;;;27.00;24.60;;;17.20;1.00;;;;;;5081188;28;20460;-68
2023/09/10 05:50:56;;;;;;;25.67;23.37;;;17.20;1.00;;;;;;5078196;28;20626;-69
2023/09/10 05:53:23;;;;;;;24.53;22.23;;;17.30;1.00;;;;;;5083108;28;20853;-68
2023/09/10 05:55:50;;;;;;;25.20;23.10;;;17.30;1.00;;;;;;5078336;28;20563;-69
2023/09/10 05:58:19;;;;;;;24.20;22.07;;;17.40;1.00;;;;;;5080899;28;20451;-70
2023/09/10 06:00:46;;;;;;;23.27;21.37;;;17.50;1.00;;;;;;5083262;28;20589;-69
2023/09/10 06:03:13;;;;;;;23.40;21.37;;;17.60;1.00;;;;;;5079888;28;20875;-70
2023/09/10 06:05:40;;;;;;;24.63;22.57;;;17.70;1.00;;;;;;5079565;28;20474;-71
2023/09/10 06:08:07;;;;;;;23.53;21.37;;;17.80;1.00;;;;;;5079024;28;20558;-69
2023/09/10 06:10:34;;;;;;;25.00;22.77;;;17.90;1.00;;;;;;5078216;28;20456;-69
2023/09/10 06:13:01;;;;;;;26.47;24.27;;;18.00;1.00;;;;;;5080092;28;20569;-70
2023/09/10 06:15:30;;;;;;;25.33;23.30;;;18.00;1.00;;;;;;5081011;28;20547;-68
2023/09/10 06:17:56;;;;;;;23.80;21.70;;;18.00;1.00;;;;;;5075954;28;20474;-70
2023/09/10 06:20:23;;;;;;;25.17;23.17;;;18.00;1.00;;;;;;5081081;28;20529;-69
2023/09/10 06:22:51;;;;;;;23.83;21.80;;;18.00;1.00;;;;;;5081320;28;20555;-69
2023/09/10 06:25:19;;;;;;;24.50;22.60;;;18.10;1.00;;;;;;5061951;28;20567;-69
2023/09/10 06:27:46;;;;;;;25.03;22.93;;;18.20;1.00;;;;;;5063532;28;20455;-69
2023/09/10 06:30:13;;;;;;;24.37;22.17;;;18.30;1.00;;;;;;5078292;28;20458;-72
2023/09/10 06:32:44;;;;;;;26.00;23.63;;;18.30;1.00;;;;;;5080750;28;20857;-69
2023/09/10 06:35:14;;;;;;;24.73;22.47;;;18.40;1.00;;;;;;5077364;28;20461;-73
2023/09/10 06:37:42;;;;;;;25.43;23.43;;;18.50;1.00;;;;;;5075514;28;20553;-73
2023/09/10 06:40:10;;;;;;;25.20;23.20;;;18.60;1.00;;;;;;5076374;28;21034;-69
2023/09/10 06:42:37;;;;;;;24.53;22.53;;;18.70;1.00;;;;;;5077479;28;20551;-69
2023/09/10 06:45:05;;;;;;;26.83;24.30;;;18.70;1.00;;;;;;5076670;28;21726;-70
2023/09/10 06:47:32;;;;;;;25.50;23.40;;;18.80;1.00;;;;;;5080262;28;20462;-69
2023/09/10 06:50:00;;;;;;;24.63;22.63;;;18.90;1.00;;;;;;5080567;28;20472;-68
2023/09/10 06:52:27;;;;;;;25.00;22.93;;;19.00;1.00;;;;;;5081857;28;21089;-70
2023/09/10 06:54:54;;;;;;;24.33;22.23;;;19.10;1.00;;;;;;5078679;28;21131;-71
2023/09/10 06:57:21;;;;;;;25.07;23.10;;;19.20;1.00;;;;;;5077347;28;20450;-74
2023/09/10 06:59:48;;;;;;;24.03;22.13;;;19.30;1.00;;;;;;5080029;28;20612;-75
2023/09/10 07:02:15;;;;;;;25.93;23.83;;;19.50;1.00;;;;;;5072391;28;20454;-75
2023/09/10 07:04:47;;;;;;;25.63;23.60;;;19.60;1.00;;;;;;5077153;28;20482;-75
2023/09/10 07:07:15;;;;;;;23.17;21.23;;;19.70;1.00;;;;;;5076422;28;20550;-76
2023/09/10 07:09:43;;;;;;;24.37;22.27;;;19.80;1.00;;;;;;5077855;28;20502;-76
2023/09/10 07:12:10;;;;;;;24.63;22.77;;;20.10;1.00;;;;;;5081230;28;20452;-76
2023/09/10 07:14:38;;;;;;;23.80;21.90;;;20.20;1.00;;;;;;5076414;28;20467;-75
2023/09/10 07:17:07;;;;;;;24.27;22.17;;;20.30;1.00;;;;;;5075797;28;20576;-76
2023/09/10 07:19:33;;;;;;;22.70;20.90;;;20.40;1.00;;;;;;5075685;28;21479;-74
2023/09/10 07:22:00;;;;;;;23.33;21.27;;;20.70;1.00;;;;;;5076054;28;20433;-75
2023/09/10 07:24:29;;;;;;;23.00;21.20;;;20.90;1.00;;;;;;5078379;28;20480;-75
2023/09/10 07:26:56;;;;;;;22.37;20.60;;;21.10;1.00;;;;;;5075216;28;20461;-75
2023/09/10 07:29:23;;;;;;;22.67;20.77;;;21.20;1.00;;;;;;5073653;28;20466;-77
2023/09/10 07:31:52;;;;;;;22.87;20.60;;;21.40;1.00;;;;;;5075962;28;20507;-75
2023/09/10 07:34:21;;;;;;;22.67;20.67;;;21.50;1.00;;;;;;5074146;28;20704;-76
2023/09/10 07:36:49;;;;;;;20.97;19.27;;;21.60;1.00;;;;;;5067415;28;20470;-75
2023/09/10 07:39:19;;;;;;;21.57;19.87;;;21.70;1.00;;;;;;5061755;28;20538;-75
2023/09/10 07:41:47;;;;;;;21.30;19.70;;;22.00;1.00;;;;;;5078599;28;20650;-75
2023/09/10 07:44:14;;;;;;;22.13;20.30;;;22.10;1.00;;;;;;5072318;28;20573;-74
2023/09/10 07:46:41;;;;;;;20.97;19.27;;;22.20;1.00;;;;;;5073571;28;20478;-74
2023/09/10 07:49:08;;;;;;;19.00;17.57;;;22.30;1.00;;;;;;5075736;28;20507;-75
2023/09/10 07:51:35;;;;;;;18.97;17.47;;;22.40;1.00;;;;;;5074491;28;20479;-75
2023/09/10 07:54:02;;;;;;;21.63;19.43;;;22.40;1.00;;;;;;5073790;28;20486;-74
2023/09/10 07:56:29;;;;;;;20.33;18.70;;;22.60;1.00;;;;;;5076416;28;20466;-75
2023/09/10 07:58:58;;;;;;;20.10;18.60;;;22.80;1.00;;;;;;5082051;28;20974;-75
2023/09/10 08:01:25;;;;;;;21.43;19.53;;;22.90;1.00;;;;;;5068708;28;20466;-75
2023/09/10 08:03:52;;;;;;;19.77;18.17;;;23.00;1.00;;;;;;5062995;28;21019;-76
2023/09/10 08:06:19;;;;;;;21.33;19.63;;;23.20;1.00;;;;;;5083946;28;20461;-71
2023/09/10 08:08:46;;;;;;;22.00;19.90;;;23.30;1.00;;;;;;5085363;28;20480;-76
2023/09/10 08:11:13;;;;;;;19.13;17.63;;;23.50;1.00;;;;;;5081870;28;20584;-75
2023/09/10 08:13:42;;;;;;;18.50;17.10;;;23.60;1.00;;;;;;5085722;28;21222;-72
2023/09/10 08:16:13;;;;;;;19.00;17.60;;;23.70;1.00;;;;;;5081474;28;20464;-72
2023/09/10 08:18:41;;;;;;;20.37;18.80;;;23.80;1.00;;;;;;5082569;28;20464;-73
2023/09/10 08:21:08;;;;;;;19.07;17.43;;;24.00;1.00;;;;;;5081777;28;20530;-74
2023/09/10 08:23:35;;;;;;;17.17;15.77;;;24.20;1.00;;;;;;5080001;28;20503;-74
2023/09/10 08:26:02;;;;;;;19.43;17.70;;;24.40;1.00;;;;;;5078182;28;20464;-73
2023/09/10 08:28:29;;;;;;;20.33;18.40;;;24.50;1.00;;;;;;5075515;28;20460;-75
2023/09/10 08:30:56;;;;;;;19.50;18.03;;;24.70;1.00;;;;;;5078402;28;20454;-73
2023/09/10 08:33:25;;;;;;;20.57;18.47;;;24.90;1.00;;;;;;5083444;28;20473;-74
2023/09/10 08:35:54;;;;;;;24.53;22.67;;;25.00;1.00;;;;;;5082969;28;20473;-73
2023/09/10 08:38:21;;;;;;;21.03;19.30;;;25.10;1.00;;;;;;5087454;28;20457;-74
2023/09/10 08:41:04;;;;;;;18.20;16.80;;;25.30;1.00;;;;;;5085113;28;20548;-73
2023/09/10 08:43:40;;;;;;;18.33;16.83;;;25.40;1.00;;;;;;5080532;28;20556;-75
2023/09/10 08:46:10;;;;;;;18.40;17.03;;;25.50;1.00;;;;;;5078746;28;20453;-74
2023/09/10 08:48:41;;;;;;;18.50;17.00;;;25.60;1.00;;;;;;5085636;28;20456;-73
2023/09/10 08:51:08;;;;;;;19.67;18.07;;;25.70;1.00;;;;;;5079758;28;20990;-77
2023/09/10 08:53:40;;;;;;;18.47;16.87;;;25.90;1.00;;;;;;5080239;28;20492;-77
2023/09/10 08:56:08;;;;;;;17.90;16.53;;;26.10;1.00;;;;;;5081337;28;20457;-73
2023/09/10 08:58:36;;;;;;;18.07;16.67;;;26.20;1.00;;;;;;5082490;28;20461;-73
2023/09/10 09:01:05;;;;;;;18.40;17.00;;;26.40;1.00;;;;;;5078101;28;21084;-75
2023/09/10 09:03:33;;;;;;;17.87;16.60;;;26.60;1.00;;;;;;5082375;28;20556;-73
2023/09/10 09:06:03;;;;;;;18.27;16.47;;;26.80;1.00;;;;;;5079832;28;20477;-72
2023/09/10 09:08:32;;;;;;;17.00;15.70;;;26.90;1.00;;;;;;5080699;28;20462;-74
2023/09/10 09:11:03;;;;;;;16.20;15.03;;;27.10;1.00;;;;;;5077648;28;21131;-76
2023/09/10 09:13:33;;;;;;;16.00;14.80;;;27.40;1.00;;;;;;5079870;28;20477;-73
2023/09/10 09:16:01;;;;;;;17.13;15.63;;;27.70;1.00;;;;;;5078432;28;20544;-77
2023/09/10 09:18:29;;;;;;;16.90;15.50;;;28.30;1.00;;;;;;5084082;28;20471;-76
2023/09/10 09:21:00;;;;;;;16.73;15.27;;;29.50;1.00;;;;;;5080444;28;20517;-75
2023/09/10 09:23:30;;;;;;;16.70;15.30;;;31.30;1.00;;;;;;5080652;28;20434;-77
2023/09/10 09:25:58;;;;;;;14.83;13.80;;;33.10;1.00;;;;;;5080153;28;20459;-78
2023/09/10 09:28:27;;;;;;;16.30;14.73;;;34.40;1.00;;;;;;5076196;28;20975;-76
2023/09/10 09:30:54;;;;;;;16.07;14.87;;;35.40;1.00;;;;;;5076973;28;20495;-79
2023/09/10 09:33:21;;;;;;;14.60;13.40;;;36.30;1.00;;;;;;5082431;28;20486;-73
2023/09/10 09:35:48;;;;;;;15.47;14.47;;;37.10;1.00;;;;;;5077699;28;20501;-78
2023/09/10 09:38:15;;;;;;;15.47;14.27;;;37.50;1.00;;;;;;5082260;28;20454;-77
2023/09/10 09:40:45;;;;;;;14.97;13.80;;;37.90;1.00;;;;;;5082628;28;21049;-77
2023/09/10 09:43:12;;;;;;;13.57;12.67;;;38.50;1.00;;;;;;5076850;28;20457;-79
2023/09/10 09:45:40;;;;;;;14.07;13.07;;;39.00;1.00;;;;;;5081501;28;20456;-78
2023/09/10 09:48:08;;;;;;;15.00;13.80;;;39.30;1.00;;;;;;5076565;28;20458;-76
2023/09/10 09:50:36;;;;;;;18.23;16.67;;;39.60;1.00;;;;;;5081047;28;20969;-77
2023/09/10 09:53:03;;;;;;;14.13;13.13;;;39.70;1.00;;;;;;5083105;28;20720;-78
2023/09/10 09:55:31;;;;;;;14.00;13.00;;;39.60;1.00;;;;;;5077944;28;20822;-78
2023/09/10 09:57:59;;;;;;;14.13;13.00;;;40.00;1.00;;;;;;5081189;28;20466;-77
2023/09/10 10:00:26;;;;;;;14.23;13.03;;;40.40;1.00;;;;;;5079316;28;20452;-78
2023/09/10 10:02:53;;;;;;;13.70;12.70;;;40.50;1.00;;;;;;5077010;28;20512;-79
2023/09/10 10:05:20;;;;;;;13.23;12.27;;;40.90;1.00;;;;;;5076885;28;20470;-78
2023/09/10 10:07:48;;;;;;;14.83;13.73;;;40.90;1.00;;;;;;5076508;28;20899;-79
2023/09/10 10:10:16;;;;;;;13.20;12.30;;;41.10;1.00;;;;;;5079739;28;20600;-79
2023/09/10 10:12:45;;;;;;;13.20;12.20;;;41.20;1.00;;;;;;5082249;28;20478;-78
2023/09/10 10:15:14;;;;;;;15.40;14.30;;;41.60;1.00;;;;;;5081702;28;20470;-80
2023/09/10 10:17:43;;;;;;;13.70;12.63;;;41.90;1.00;;;;;;5078009;28;20463;-80
2023/09/10 10:20:11;;;;;;;11.70;10.93;;;42.00;1.00;;;;;;5083160;28;20469;-79
2023/09/10 10:22:38;;;;;;;12.57;11.70;;;42.20;1.00;;;;;;5080896;28;20471;-80
2023/09/10 10:25:09;;;;;;;12.10;11.00;;;42.50;1.00;;;;;;5077670;28;20457;-78
2023/09/10 10:27:36;;;;;;;13.20;12.20;;;42.60;1.00;;;;;;5060954;28;22464;-77
2023/09/10 10:30:04;;;;;;;10.73;10.03;;;42.70;1.00;;;;;;5079162;28;20885;-78
2023/09/10 10:32:41;;;;;;;10.87;10.27;;;43.20;1.00;;;;;;5079966;28;21032;-80
2023/09/10 10:35:10;;;;;;;11.83;11.03;;;43.60;1.00;;;;;;5079783;28;20843;-79
2023/09/10 10:37:46;;;;;;;10.20;9.50;;;44.10;1.00;;;;;;5078700;28;20968;-78
2023/09/10 10:40:17;;;;;;;10.97;10.27;;;44.20;1.00;;;;;;5082291;28;20537;-78
2023/09/10 10:42:51;;;;;;;11.17;10.10;;;44.50;1.00;;;;;;5080793;28;20932;-79
2023/09/10 10:45:19;;;;;;;9.87;9.27;;;44.40;1.00;;;;;;5078630;28;20447;-81
2023/09/10 10:47:49;;;;;;;8.70;8.00;;;44.70;1.00;;;;;;5081839;28;20510;-78
2023/09/10 10:50:25;;;;;;;8.90;8.30;;;44.80;1.00;;;;;;5080428;28;20651;-78
2023/09/10 10:52:56;;;;;;;9.00;8.10;;;44.90;1.00;;;;;;5078748;28;20502;-77
2023/09/10 10:55:25;;;;;;;8.97;8.37;;;45.50;1.00;;;;;;5079423;28;20469;-78
2023/09/10 10:57:53;;;;;;;9.50;8.80;;;45.40;1.00;;;;;;5077562;28;20571;-76
2023/09/10 11:00:20;;;;;;;8.23;7.63;;;45.50;1.00;;;;;;5078418;28;20458;-77
2023/09/10 11:03:09;;;;;;;8.23;7.63;;;45.50;1.00;;;;;;5078799;28;20883;-78
2023/09/10 11:06:07;;;;;;;8.50;7.70;;;45.50;1.00;;;;;;5078137;28;20450;-78
2023/09/10 11:08:36;;;;;;;8.00;7.40;;;45.40;1.00;;;;;;5076907;28;20470;-77
2023/09/10 11:11:04;;;;;;;7.93;7.23;;;45.90;1.00;;;;;;5078801;28;20502;-76
2023/09/10 11:13:33;;;;;;;9.00;8.30;;;46.40;1.00;;;;;;5078571;28;20498;-76
2023/09/10 11:16:16;;;;;;;8.50;7.90;;;46.40;1.00;;;;;;5079901;28;20469;-78
2023/09/10 11:18:46;;;;;;;9.10;8.40;;;46.60;1.00;;;;;;5078560;28;20454;-77
2023/09/10 11:21:15;;;;;;;7.33;6.93;;;46.70;1.00;;;;;;5076261;28;20482;-79
2023/09/10 11:24:23;;;;;;;9.47;7.50;;;46.40;1.00;;;;;;5078312;28;20470;-79
2023/09/10 11:26:50;;;;;;;7.43;6.97;;;46.40;1.00;;;;;;5070274;28;20454;-77
2023/09/10 11:29:18;;;;;;;7.87;7.13;;;46.70;1.00;;;;;;5076010;28;20427;-78
2023/09/10 11:31:47;;;;;;;7.00;6.50;;;46.70;1.00;;;;;;5080087;28;20528;-77
2023/09/10 11:34:40;;;;;;;7.37;6.87;;;46.50;1.00;;;;;;5080872;28;20561;-79
2023/09/10 11:37:09;;;;;;;7.53;7.13;;;46.30;1.00;;;;;;5077900;28;20549;-76
2023/09/10 11:39:37;;;;;;;7.13;6.63;;;46.70;1.00;;;;;;5086805;28;20478;-75
2023/09/10 11:42:11;;;;;;;6.50;6.00;;;47.20;1.00;;;;;;5085607;28;20470;-73
2023/09/10 11:44:41;;;;;;;7.20;6.60;;;47.20;1.00;;;;;;5084860;28;20502;-73
2023/09/10 11:47:08;;;;;;;6.90;6.50;;;46.90;1.00;;;;;;5078447;28;20470;-73
2023/09/10 11:49:35;;;;;;;6.97;6.47;;;47.30;1.00;;;;;;5081753;28;20475;-74
2023/09/10 11:52:03;;;;;;;6.70;6.20;;;47.30;1.00;;;;;;5083112;28;20459;-73
2023/09/10 11:54:31;;;;;;;7.07;6.50;;;47.60;1.00;;;;;;5086491;28;20466;-75
2023/09/10 11:56:59;;;;;;;6.23;5.83;;;47.50;1.00;;;;;;5077597;28;20454;-75
2023/09/10 11:59:29;;;;;;;7.10;6.50;;;48.00;1.00;;;;;;5085323;28;20457;-74
2023/09/10 12:01:57;;;;;;;7.23;6.80;;;48.20;1.00;;;;;;5084049;28;20521;-75
2023/09/10 12:04:28;;;;;;;6.97;6.30;;;48.60;1.00;;;;;;5087521;28;20532;-76
2023/09/10 12:06:55;;;;;;;10.13;8.27;;;48.40;1.00;;;;;;5080556;28;20597;-76
2023/09/10 12:09:24;;;;;;;6.83;6.23;;;48.70;1.00;;;;;;5084308;28;20969;-76
2023/09/10 12:11:53;;;;;;;6.20;5.70;;;49.00;1.00;;;;;;5085143;28;20846;-77
2023/09/10 12:14:21;;;;;;;6.43;5.93;;;48.90;1.00;;;;;;5082401;28;20466;-78
2023/09/10 12:16:48;;;;;;;6.33;5.93;;;48.50;1.00;;;;;;5082337;28;20450;-72
2023/09/10 12:19:17;;;;;;;5.93;5.50;;;48.20;1.00;;;;;;5080649;28;20446;-76
2023/09/10 12:21:44;;;;;;;7.03;6.43;;;48.40;1.00;;;;;;5080388;28;20462;-77
2023/09/10 12:24:11;;;;;;;7.23;6.73;;;48.90;1.00;;;;;;5083483;28;20500;-75
2023/09/10 12:26:40;;;;;;;6.60;6.10;;;49.10;1.00;;;;;;5080405;28;20462;-76
2023/09/10 12:29:07;;;;;;;6.57;6.17;;;49.30;1.00;;;;;;5077623;28;20434;-74
2023/09/10 12:31:35;;;;;;;6.67;6.20;;;49.50;1.00;;;;;;5081952;28;20561;-75
2023/09/10 12:34:02;;;;;;;6.70;6.10;;;49.20;1.00;;;;;;5081730;28;20474;-73
2023/09/10 12:36:30;;;;;;;6.63;6.13;;;49.30;1.00;;;;;;5082746;28;20454;-76
2023/09/10 12:38:57;;;;;;;6.43;6.03;;;49.80;1.00;;;;;;5084767;28;20470;-76
2023/09/10 12:41:24;;;;;;;7.00;6.47;;;49.80;1.00;;;;;;5081537;28;20537;-76
2023/09/10 12:43:53;;;;;;;6.37;5.93;;;50.20;1.00;;;;;;5082522;28;21224;-76
2023/09/10 12:46:20;;;;;;;7.87;7.10;;;50.20;1.00;;;;;;5064821;28;20571;-75